Latest Coastal Weather Observations for Geelong Racecourse

IDV60701

Issued at 7:41 am EST Saturday 30 July 2016 (issued every 10 minutes, with the page automatically refreshed every 10 minutes)

About coastal observations | Map of coastal stations | Coastal observations for VIC | Marine services | Other Formats
Station Details ID: 087184 Name: GEELONG RACECOURSE Lat: -38.17 Lon: 144.38 Height: 12.9 m
Data from the previous 72 hours. | See also: Recent months at Geelong Racecourse
Date/Time
EST
Temp
°C
Wind Pressure Rain since
9am
mm
Weather Cloud Vis
km
Sea
Height
m
Swell
Dir  Spd
kts
Gust
kts
hPa Trend Height
m
Period
s
Dir
30/07:30am 8.1 N 1 2 1020.6 - 0.2 - - - - - - -
30/07:00am 8.3 NNE 3 5 1020.6 - 0.2 - - - - - - -
30/06:30am 8.5 NE 2 2 1020.7 - 0.2 - - - - - - -
30/06:00am 8.7 NE 3 4 1020.7 - 0.2 - - - - - - -
30/05:30am 8.4 NE 2 3 1020.9 - 0.2 - - - - - - -
30/05:00am 7.4 ENE 1 2 1021.0 - 0.2 - - - - - - -
30/04:30am 6.5 CALM 0 0 1021.0 - 0.2 - - - - - - -
30/04:00am 5.9 CALM 0 0 1021.2 - 0.2 - - - - - - -
30/03:30am 6.6 CALM 0 0 1021.1 - 0.2 - - - - - - -
30/03:00am 7.7 ESE 1 1 1021.1 - 0.2 - - - - - - -
30/02:30am 7.0 CALM 0 0 1021.5 - 0.2 - - - - - - -
30/02:00am 8.9 CALM 0 0 1021.5 - 0.2 - - - - - - -
30/01:30am 8.4 WNW 3 4 1021.6 - 0.2 - - - - - - -
30/01:00am 8.8 SW 1 1 1021.5 - 0.2 - - - - - - -
30/12:30am 9.8 WNW 4 6 1021.7 - 0.2 - - - - - - -
30/12:00am 10.1 NW 6 7 1021.7 - 0.2 - - - - - - -
 
Date/Time
EST
Temp
°C
Wind Pressure Rain since
9am
mm
Weather Cloud Vis
km
Sea
Height
m
Swell
Dir  Spd
kts
Gust
kts
hPa Trend Height
m
Period
s
Dir
29/11:30pm 10.4 NW 3 5 1021.7 - 0.2 - - - - - - -
29/11:00pm 11.3 W 4 5 1021.8 - 0.2 - - - - - - -
29/10:30pm 11.6 WNW 5 7 1021.7 - 0.2 - - - - - - -
29/10:00pm 11.0 WNW 2 3 1021.7 - 0.2 - - - - - - -
29/09:30pm 11.1 NW 4 5 1021.7 - 0.2 - - - - - - -
29/09:00pm 10.8 NW 3 5 1021.5 - 0.2 - - - - - - -
29/08:30pm 10.8 NW 3 3 1021.4 - 0.2 - - - - - - -
29/08:00pm 10.9 NW 4 5 1021.2 - 0.2 - - - - - - -
29/07:30pm 11.3 WNW 2 4 1021.1 - 0.2 - - - - - - -
29/07:00pm 11.2 NW 5 7 1020.8 - 0.2 - - - - - - -
29/06:30pm 11.5 NW 6 8 1020.5 - 0.2 - - - - - - -
29/06:00pm 12.0 WNW 6 9 1020.1 - 0.2 - - - - - - -
29/05:30pm 12.4 W 5 7 1019.8 - 0.2 - - - - - - -
29/05:00pm 13.5 WSW 7 11 1019.7 - 0.2 - - - - - - -
29/04:30pm 14.2 W 10 17 1019.4 - 0.2 - - - - - - -
29/04:00pm 14.9 W 9 14 1019.1 - 0.2 - - - - - - -
29/03:30pm 14.8 W 9 13 1019.2 - 0.2 - - - - - - -
29/03:00pm 13.9 WSW 8 13 1018.8 - 0.2 Recent precip. - - - - - -
29/02:30pm 12.7 W 13 20 1018.8 - 0.2 - - - - - - -
29/02:00pm 13.4 W 14 23 1018.6 - 0.0 - - - - - - -
29/01:30pm 14.8 WNW 12 20 1018.6 - 0.0 - - - - - - -
29/01:00pm 14.6 WNW 12 19 1019.0 - 0.0 - - - - - - -
29/12:30pm 14.2 WNW 14 23 1019.6 - 0.0 - - - - - - -
29/12:00pm 14.4 WNW 15 25 1019.6 - 0.0 - - - - - - -
29/11:30am 13.2 WNW 13 21 1020.2 - 0.0 - - - - - - -
29/11:00am 13.0 NW 12 20 1020.1 - 0.0 - - - - - - -
29/10:30am 12.7 NW 10 21 1020.2 - 0.0 - - - - - - -
29/10:00am 12.9 NW 12 22 1020.1 - 0.0 - - - - - - -
29/09:30am 12.3 NW 8 14 1020.1 - 0.0 - - - - - - -
29/09:00am 11.9 NW 10 15 1020.1 - 0.0 - - - - - - -
29/08:30am 12.0 NW 9 13 1020.0 - 0.0 - - - - - - -
29/08:00am 11.6 NW 8 12 1019.9 - 0.0 - - - - - - -
29/07:30am 11.7 NNW 9 16 1019.7 - 0.0 - - - - - - -
29/07:00am 11.6 NNW 8 13 1019.6 - 0.0 - - - - - - -
29/06:30am 11.5 NNW 7 10 1019.6 - 0.0 - - - - - - -
29/06:00am 11.6 NNW 7 11 1019.6 - 0.0 - - - - - - -
29/05:30am 11.7 NNW 8 12 1019.5 - 0.0 - - - - - - -
29/05:00am 11.6 NNW 7 10 1019.6 - 0.0 - - - - - - -
29/04:30am 11.6 NNW 8 12 1019.7 - 0.0 - - - - - - -
29/04:00am 11.8 NNW 6 9 1019.7 - 0.0 - - - - - - -
29/03:30am 11.7 NNW 6 9 1019.8 - 0.0 - - - - - - -
29/03:00am 11.7 NNW 6 9 1020.1 - 0.0 - - - - - - -
29/02:30am 11.8 N 5 8 1020.3 - 0.0 - - - - - - -
29/02:00am 12.0 NNW 6 8 1020.4 - 0.0 - - - - - - -
29/01:30am 12.0 NNW 4 6 1020.5 - 0.0 - - - - - - -
29/01:00am 12.2 N 5 7 1020.7 - 0.0 - - - - - - -
29/12:30am 12.2 N 5 8 1020.8 - 0.0 - - - - - - -
29/12:00am 12.5 NNW 7 10 1021.1 - 0.0 - - - - - - -
 
Date/Time
EST
Temp
°C
Wind Pressure Rain since
9am
mm
Weather Cloud Vis
km
Sea
Height
m
Swell
Dir  Spd
kts
Gust
kts
hPa Trend Height
m
Period
s
Dir
28/11:30pm 12.5 NNW 7 9 1021.3 - 0.0 - - - - - - -
28/11:00pm 12.6 NNW 7 10 1021.2 - 0.0 - - - - - - -
28/10:30pm 12.8 N 8 13 1021.6 - 0.0 - - - - - - -
28/10:00pm 12.9 NNW 10 13 1021.8 - 0.0 - - - - - - -
28/09:30pm 13.2 NNW 10 16 1021.7 - 0.0 - - - - - - -
28/09:00pm 13.5 NW 13 19 1021.7 - 0.0 - - - - - - -
28/08:30pm 13.2 NW 11 15 1021.7 - 0.0 - - - - - - -
28/08:00pm 12.9 NW 7 11 1021.9 - 0.0 - - - - - - -
28/07:30pm 12.9 NW 6 10 1022.1 - 0.0 - - - - - - -
28/07:00pm 13.4 NW 5 10 1022.0 - 0.0 - - - - - - -
28/06:30pm 13.7 NW 7 12 1022.0 - 0.0 - - - - - - -
28/06:00pm 13.8 NNW 7 12 1021.6 - 0.0 - - - - - - -
28/05:30pm 13.7 NW 7 11 1021.6 - 0.0 - - - - - - -
28/05:00pm 13.8 NW 8 10 1021.5 - 0.0 - - - - - - -
28/04:30pm 14.2 WNW 13 19 1021.5 - 0.0 - - - - - - -
28/04:00pm 14.3 WNW 14 21 1021.4 - 0.0 - - - - - - -
28/03:30pm 14.3 WNW 15 22 1021.3 - 0.0 - - - - - - -
28/03:00pm 14.7 WNW 13 19 1021.4 - 0.0 - - - - - - -
28/02:30pm 14.4 WNW 12 20 1021.4 - 0.0 - - - - - - -
28/02:00pm 13.7 W 16 23 1021.7 - 0.0 - - - - - - -
28/01:30pm 14.4 WNW 16 23 1021.4 - 0.0 - - - - - - -
28/01:04pm 13.7 WNW 15 25 1021.7 - 0.0 - - - - - - -
28/01:00pm 13.3 WNW 17 25 1021.8 - 0.0 - - - - - - -
28/12:30pm 13.3 WNW 16 27 1022.2 - 0.0 - - - - - - -
28/12:23pm 13.2 WNW 15 26 1022.2 - 0.0 - - - - - - -
28/12:00pm 13.4 WNW 14 26 1022.2 - 0.0 - - - - - - -
28/11:51am 13.5 WNW 15 26 1022.3 - 0.0 - - - - - - -
28/11:30am 13.9 WNW 15 22 1022.5 - 0.0 - - - - - - -
28/11:00am 13.4 WNW 16 28 1022.7 - 0.0 - - - - - - -
28/10:55am 13.4 WNW 15 28 1022.7 - 0.0 - - - - - - -
28/10:30am 13.5 WNW 13 23 1022.8 - 0.0 - - - - - - -
28/10:00am 12.6 WNW 14 23 1022.5 - 0.0 - - - - - - -
28/09:30am 11.8 WNW 12 18 1022.7 - 0.0 - - - - - - -
28/09:00am 10.8 NW 11 21 1022.5 - 0.0 - - - - - - -
28/08:30am 10.4 WNW 10 15 1022.5 - 0.0 - - - - - - -
28/08:00am 9.8 WNW 7 14 1022.4 - 0.0 - - - - - - -
28/07:30am 9.5 NW 8 13 1022.3 - 0.0 - - - - - - -
28/07:00am 9.6 NW 9 15 1022.0 - 0.0 - - - - - - -
28/06:30am 9.7 NW 11 16 1021.9 - 0.0 - - - - - - -
28/06:00am 9.7 NW 10 15 1021.5 - 0.0 - - - - - - -
28/05:30am 9.5 NW 9 13 1021.6 - 0.0 - - - - - - -
28/05:00am 9.5 NW 10 15 1021.4 - 0.0 - - - - - - -
28/04:30am 9.9 WNW 9 15 1021.3 - 0.0 - - - - - - -
28/04:00am 9.9 WNW 10 17 1021.3 - 0.0 - - - - - - -
28/03:30am 9.8 WNW 11 17 1021.2 - 0.0 - - - - - - -
28/03:00am 9.9 WNW 8 16 1021.6 - 0.0 - - - - - - -
28/02:30am 9.7 WNW 11 20 1021.7 - 0.0 - - - - - - -
28/02:00am 9.5 NW 12 19 1021.0 - 0.0 - - - - - - -
28/01:30am 9.4 NW 14 19 1020.8 - 0.0 - - - - - - -
28/01:04am 9.4 WNW 15 26 1020.6 - 0.0 - - - - - - -
28/01:00am 9.3 WNW 14 26 1020.7 - 0.0 - - - - - - -
28/12:30am 9.3 WNW 11 17 1021.1 - 0.0 - - - - - - -
28/12:00am 9.0 WNW 11 17 1021.2 - 0.0 - - - - - - -
 
Date/Time
EST
Temp
°C
Wind Pressure Rain since
9am
mm
Weather Cloud Vis
km
Sea
Height
m
Swell
Dir  Spd
kts
Gust
kts
hPa Trend Height
m
Period
s
Dir
27/11:30pm 8.9 WNW 10 16 1021.1 - 0.0 - - - - - - -
27/11:00pm 8.7 WNW 9 15 1021.1 - 0.0 - - - - - - -
27/10:30pm 8.7 WNW 10 16 1020.9 - 0.0 - - - - - - -
27/10:00pm 8.8 NW 9 14 1020.9 - 0.0 - - - - - - -
27/09:30pm 8.8 NW 9 14 1021.0 - 0.0 - - - - - - -
27/09:00pm 9.1 WNW 11 17 1021.4 - 0.0 - - - - - - -
27/08:30pm 9.1 WNW 8 14 1021.5 - 0.0 - - - - - - -
27/08:00pm 8.9 WNW 8 13 1021.1 - 0.0 - - - - - - -
27/07:30pm 8.9 W 10 17 1020.8 - 0.0 - - - - - - -
27/07:00pm 9.3 W 10 16 1020.7 - 0.0 - - - - - - -
27/06:30pm 9.5 W 8 15 1020.1 - 0.0 - - - - - - -
27/06:00pm 8.9 W 6 10 1019.3 - 0.0 - - - - - - -
27/05:30pm 9.4 W 7 13 1018.7 - 0.0 - - - - - - -
27/05:00pm 10.1 W 12 16 1018.7 - 0.0 - - - - - - -
27/04:30pm 10.3 W 10 15 1018.6 - 0.0 - - - - - - -
27/04:00pm 10.0 W 14 23 1018.5 - 0.0 - - - - - - -
27/03:30pm 11.3 W 13 22 1017.9 - 0.0 - - - - - - -
27/03:00pm 11.1 W 11 16 1017.5 - 0.0 - - - - - - -
27/02:30pm 11.3 W 13 20 1016.9 - 0.0 - - - - - - -
27/02:00pm 12.0 W 13 21 1016.4 - 0.0 - - - - - - -
27/01:30pm 12.1 W 12 17 1016.3 - 0.0 - - - - - - -
27/01:00pm 11.2 WSW 12 20 1016.3 - 0.0 - - - - - - -
27/12:30pm 10.9 W 13 19 1016.2 - 0.0 - - - - - - -
27/12:00pm 11.8 W 14 22 1016.0 - 0.0 - - - - - - -
27/11:30am 10.9 W 11 15 1015.5 - 0.0 - - - - - - -
27/11:00am 11.8 WSW 11 19 1015.3 - 0.0 - - - - - - -
27/10:30am 11.0 WSW 13 18 1015.0 - 0.0 - - - - - - -
27/10:00am 10.9 WSW 8 14 1014.5 - 0.0 - - - - - - -
27/09:30am 10.3 W 7 10 1014.0 - 0.0 - - - - - - -
27/09:00am 9.4 SW 11 18 1013.3 - 0.0 - - - - - - -
27/08:50am 9.2 WSW 10 20 1013.1 - 0.0 - - - - - - -
27/08:30am 8.8 WSW 5 7 1012.4 - 0.0 - - - - - - -
27/08:00am 8.9 WSW 7 11 1011.5 - 0.0 - - - - - - -

Other Formats:

Comma delimited format used in spreadsheet applications
http://www.bom.gov.au/fwo/IDV60701/IDV60701.94857.axf

JavaScript Object Notation format (JSON) in row-major order
http://www.bom.gov.au/fwo/IDV60701/IDV60701.94857.json